Stations météo

réclame
Mon MeteoGroup
S. Giovanni Teatino, Italie (16231): Température de l'air & dewpoint: 16.10.2017 17:00:00 - 22.10.2017 17:00:00 (CEST)S. Giovanni Teatino, Italie (16231): Vitesse du vent: 16.10.2017 17:00:00 - 22.10.2017 17:00:00 (CEST)S. Giovanni Teatino, Italie (16231): Direction du vent: 16.10.2017 17:00:00 - 22.10.2017 17:00:00 (CEST)S. Giovanni Teatino, Italie (16231): reduced air pressure: 16.10.2017 17:00:00 - 22.10.2017 17:00:00 (CEST)S. Giovanni Teatino, Italie (16231): Quantités de précipitations: 16.10.2017 17:00:00 - 22.10.2017 17:00:00 (CEST)
Date & Time tt [°C] td [°C] ff [km/h] ff [knt] dd ppp [hPa] rr [mm]
22.10.2017 17:00:00 - - - - - - -
22.10.2017 16:00:00 22,3 14,1 16 9 S 1010,0 -
22.10.2017 15:00:00 23,5 13,9 8 4 S 1010,6 -
22.10.2017 14:00:00 24,4 14,4 5 3 S 1011,5 0,0
22.10.2017 13:00:00 24,0 14,9 5 3 SE 1012,8 -
22.10.2017 12:00:00 23,1 14,6 18 10 SE 1013,8 -
22.10.2017 11:00:00 22,8 14,3 13 7 S 1014,4 -
22.10.2017 10:00:00 22,2 14,2 16 9 N 1015,1 -
22.10.2017 09:00:00 19,9 13,7 13 7 SSE 1015,5 -
22.10.2017 08:00:00 18,0 12,4 9 5 S 1016,0 -
22.10.2017 07:00:00 16,0 13,0 8 4 SW 1016,6 -
22.10.2017 06:00:00 16,3 14,9 5 3 WSW 1016,9 -
22.10.2017 05:00:00 15,2 13,8 4 2 SSE 1017,3 -
22.10.2017 04:00:00 16,0 14,8 5 3 SW 1017,7 -
22.10.2017 03:00:00 16,1 15,4 8 4 S 1018,1 -
22.10.2017 02:00:00 16,0 15,9 5 3 SE 1018,4 -
22.10.2017 01:00:00 15,2 15,1 2 1 SW 1018,8 -
22.10.2017 00:00:00 15,3 15,2 4 2 S 1019,1 -
21.10.2017 23:00:00 15,3 15,2 2 1 SSW 1019,5 -
21.10.2017 22:00:00 15,3 15,2 4 2 WSW 1019,7 -
21.10.2017 21:00:00 15,8 15,7 5 3 E 1019,7 -
21.10.2017 20:00:00 15,8 15,7 4 2 E 1019,7 0,0
21.10.2017 19:00:00 16,3 16,1 11 6 E 1019,3 -
21.10.2017 18:00:00 17,3 16,4 8 4 ENE 1019,5 -
21.10.2017 17:00:00 18,0 16,6 8 4 ENE 1019,5 -
21.10.2017 16:00:00 19,2 17,3 9 5 ENE 1019,4 -
21.10.2017 15:00:00 20,0 17,0 13 7 ENE 1019,2 -
21.10.2017 14:00:00 20,4 16,4 9 5 NE 1019,7 0,0
21.10.2017 13:00:00 20,5 16,3 13 7 NNE 1020,2 -
21.10.2017 12:00:00 20,8 14,6 9 5 E 1020,4 -
21.10.2017 11:00:00 19,5 14,2 4 2 S 1020,9 -
21.10.2017 10:00:00 17,5 15,1 5 3 S 1021,1 -
21.10.2017 09:00:00 14,6 13,3 4 2 SW 1021,3 -
21.10.2017 08:00:00 13,0 11,7 5 3 S 1021,0 -
21.10.2017 07:00:00 13,5 13,1 4 2 S 1020,7 -
21.10.2017 06:00:00 13,0 12,4 2 1 SSW 1020,6 -
21.10.2017 05:00:00 13,3 12,9 5 3 SW 1020,7 -
21.10.2017 04:00:00 13,5 13,1 8 4 SW 1020,7 -
21.10.2017 03:00:00 13,8 13,7 4 2 SW 1020,9 -
21.10.2017 02:00:00 14,2 14,1 4 2 S 1021,2 0,0
21.10.2017 01:00:00 13,7 13,6 5 3 SW 1021,5 -
21.10.2017 00:00:00 14,3 14,1 2 1 SSE 1021,4 -
20.10.2017 23:00:00 15,1 14,9 0 0 N 1021,4 -
20.10.2017 22:00:00 15,1 14,7 2 1 S 1021,4 -
20.10.2017 21:00:00 15,4 14,9 0 0 N 1021,2 -
20.10.2017 20:00:00 15,6 15,1 4 2 ENE 1021,0 0,0
20.10.2017 19:00:00 15,8 14,9 4 2 NNE 1020,6 -
20.10.2017 18:00:00 16,4 14,9 8 4 NE 1020,0 -
20.10.2017 17:00:00 17,7 14,9 9 5 NE 1019,6 -
20.10.2017 16:00:00 18,6 15,0 9 5 ENE 1019,4 -
20.10.2017 15:00:00 18,5 13,7 11 6 NNE 1019,4 -
20.10.2017 14:00:00 19,0 14,0 9 5 NE 1019,4 0,0
20.10.2017 13:00:00 19,4 15,2 4 2 ESE 1019,9 -
20.10.2017 12:00:00 19,0 16,9 4 2 ENE 1020,6 -
20.10.2017 11:00:00 15,3 14,6 4 2 WSW 1021,0 -
20.10.2017 10:00:00 13,6 13,1 8 4 WSW 1020,7 -
20.10.2017 09:00:00 13,3 13,2 5 3 SW 1020,2 -
20.10.2017 08:00:00 12,6 12,6 11 6 SW 1019,4 -
20.10.2017 07:00:00 12,0 12,0 5 3 SW 1019,2 -
20.10.2017 06:00:00 12,2 12,2 9 5 WSW 1019,0 -
20.10.2017 05:00:00 12,8 12,8 2 1 SW 1018,6 -
20.10.2017 04:00:00 13,6 13,5 5 3 SW 1018,7 -
20.10.2017 03:00:00 13,8 13,7 2 1 SSW 1018,6 -
20.10.2017 02:00:00 14,0 13,9 4 2 SW 1018,7 -
20.10.2017 01:00:00 13,8 13,7 8 4 SW 1018,5 -
20.10.2017 00:00:00 14,4 14,3 4 2 SW 1018,4 -
19.10.2017 23:00:00 14,6 14,4 2 1 SE 1018,4 -
19.10.2017 22:00:00 14,8 14,6 2 1 ESE 1018,5 -
19.10.2017 21:00:00 15,1 14,9 4 2 E 1018,2 -
19.10.2017 20:00:00 15,5 15,1 2 1 ENE 1018,2 0,0
19.10.2017 19:00:00 15,7 15,2 4 2 NE 1018,1 -
19.10.2017 18:00:00 16,5 15,3 8 4 NNE 1017,7 -
19.10.2017 17:00:00 17,8 16,1 11 6 ENE 1017,5 -
19.10.2017 16:00:00 18,1 14,9 11 6 NE 1017,7 -
19.10.2017 15:00:00 18,9 15,5 13 7 NE 1017,7 -
19.10.2017 14:00:00 19,6 16,2 11 6 NE 1017,8 0,0
19.10.2017 13:00:00 19,7 16,7 11 6 ENE 1018,3 -
19.10.2017 12:00:00 19,2 16,7 5 3 N 1018,6 -
19.10.2017 11:00:00 17,1 16,2 8 4 NE 1018,7 -
19.10.2017 10:00:00 16,5 14,8 5 3 ESE 1018,6 -
19.10.2017 09:00:00 13,8 12,8 4 2 SSE 1018,6 -
19.10.2017 08:00:00 12,5 12,3 2 1 S 1018,1 0,0
19.10.2017 07:00:00 12,9 12,6 4 2 ENE 1018,1 -
19.10.2017 06:00:00 13,4 11,9 4 2 NE 1018,2 -
19.10.2017 05:00:00 14,9 11,6 2 1 W 1017,8 -
19.10.2017 04:00:00 15,4 12,7 4 2 ENE 1017,7 -
19.10.2017 03:00:00 14,9 11,8 4 2 WSW 1018,3 -
19.10.2017 02:00:00 15,8 13,2 2 1 W 1018,2 0,0
19.10.2017 01:00:00 15,7 14,5 4 2 SSW 1018,3 -
19.10.2017 00:00:00 14,8 13,6 4 2 SSW 1018,8 -
18.10.2017 23:00:00 14,7 14,2 2 1 SSW 1018,9 -
18.10.2017 22:00:00 15,1 14,6 5 3 SW 1018,8 -
18.10.2017 21:00:00 15,9 15,0 2 1 WSW 1018,8 -
18.10.2017 20:00:00 16,2 15,3 2 1 E 1018,7 0,0
18.10.2017 19:00:00 16,1 15,1 5 3 E 1018,5 -
18.10.2017 18:00:00 17,4 16,0 8 4 ENE 1018,3 -
18.10.2017 17:00:00 18,9 14,7 13 7 ENE 1018,2 -
18.10.2017 16:00:00 20,0 14,9 11 6 ENE 1018,2 -
18.10.2017 15:00:00 21,1 14,4 13 7 ENE 1018,3 -
18.10.2017 14:00:00 21,5 13,1 8 4 S 1018,8 0,0
18.10.2017 13:00:00 22,4 14,7 4 2 NW 1019,2 -
18.10.2017 12:00:00 20,2 13,1 4 2 WNW 1019,7 -
18.10.2017 11:00:00 19,1 11,8 4 2 WSW 1019,9 -
18.10.2017 10:00:00 17,0 11,0 8 4 SW 1020,2 -
18.10.2017 09:00:00 15,0 10,2 8 4 SW 1020,2 -
18.10.2017 08:00:00 14,1 11,6 8 4 SSW 1020,2 -
18.10.2017 07:00:00 13,9 12,1 8 4 SW 1020,4 -
18.10.2017 06:00:00 14,6 14,1 8 4 SW 1020,5 -
18.10.2017 05:00:00 14,3 13,6 2 1 ESE 1020,9 -
18.10.2017 04:00:00 14,9 13,9 4 2 E 1021,0 -
18.10.2017 03:00:00 15,4 14,2 8 4 ENE 1021,4 -
18.10.2017 02:00:00 15,3 13,8 5 3 S 1021,8 -
18.10.2017 01:00:00 15,3 14,1 4 2 SSW 1022,1 -
18.10.2017 00:00:00 15,4 14,5 2 1 SSW 1022,5 -
17.10.2017 23:00:00 15,3 14,6 5 3 SW 1022,7 -
17.10.2017 22:00:00 15,4 15,2 4 2 SSW 1022,8 -
17.10.2017 21:00:00 16,3 16,2 2 1 S 1023,3 -
17.10.2017 20:00:00 16,5 16,3 2 1 ENE 1023,4 0,0
17.10.2017 19:00:00 16,6 16,1 9 5 ENE 1023,3 -
17.10.2017 18:00:00 17,7 16,3 9 5 ENE 1023,4 -
17.10.2017 17:00:00 18,9 15,5 11 6 ENE 1023,4 -
17.10.2017 16:00:00 19,1 14,3 13 7 ENE 1023,6 -
17.10.2017 15:00:00 20,1 14,1 11 6 NE 1023,9 -
17.10.2017 14:00:00 20,6 12,5 8 4 NE 1024,4 0,0
17.10.2017 13:00:00 21,7 12,5 13 7 ENE 1025,2 -
17.10.2017 12:00:00 21,9 14,2 4 2 NE 1025,4 -
17.10.2017 11:00:00 20,6 13,0 4 2 NNW 1025,8 -
17.10.2017 10:00:00 19,7 14,2 4 2 SSE 1025,7 -
17.10.2017 09:00:00 14,8 9,5 8 4 SW 1025,9 -
17.10.2017 08:00:00 15,1 10,3 8 4 SW 1025,6 0,0
17.10.2017 07:00:00 15,7 13,1 4 2 SE 1025,3 -
17.10.2017 06:00:00 15,6 12,8 5 3 ESE 1025,5 -
17.10.2017 05:00:00 15,7 11,8 2 1 ENE 1025,5 -
17.10.2017 04:00:00 16,2 11,5 4 2 ENE 1025,6 -
17.10.2017 03:00:00 16,7 12,0 5 3 SSW 1025,9 -
17.10.2017 02:00:00 16,1 11,2 11 6 SW 1026,2 0,0
17.10.2017 01:00:00 16,8 13,1 8 4 SW 1026,5 -
17.10.2017 00:00:00 16,5 13,0 8 4 SW 1026,8 -
16.10.2017 23:00:00 16,5 13,5 5 3 SSW 1027,1 -
16.10.2017 22:00:00 16,5 15,1 8 4 SW 1027,1 -
16.10.2017 21:00:00 17,1 15,7 4 2 SW 1027,3 -
16.10.2017 20:00:00 16,9 15,4 0 0 N 1027,6 0,0
16.10.2017 19:00:00 17,6 16,2 4 2 NE 1027,2 -
16.10.2017 18:00:00 18,7 13,5 4 2 NE 1027,0 -
16.10.2017 17:00:00 20,3 13,2 8 4 NE 1026,7 -

tt = Température de l'air
td = dewpoint
ff = Vitesse du vent
dd = Direction du vent
ppp = reduced air pressure
rr = Quantités de précipitations

stations d'obs. à proximité